DAUU/OGX METAR and TAF weather

Enter ICAO airport designator
Station Type Date Time Source
DAUU METAR 2020/06/06 14:00 UTC NOAA

DAUU 061400Z 24004KT 9999 FEW046 SCT233 40/// Q1011


Station Type Date Time Source
DAUU Decoded METAR 2020/06/06 14:00 UTC NOAA

Ouargla, Algeria (DAUU) 31-55N 005-24E 141M
Jun 06, 2020 - 10:00 AM EDT / 2020.06.06 1400 UTC
Wind: from the WSW (240 degrees) at 5 MPH (4 KT):0
Visibility: greater than 7 mile(s):0
Sky conditions: partly cloudy
Temperature: 104 F (40 C)
Pressure (altimeter): 29.85 in. Hg (1011 hPa)
ob: DAUU 061400Z 24004KT 9999 FEW046 SCT233 40/// Q1011
cycle: 14

Station Type Date Time Source
DAUU TAF 2017/11/09 18:03 UTC NOAA

TAF DAUU 091700Z 0918/1009 34012KT 9999 FEW040 SCT100 PROB40
TEMPO 0918/0924 34015G25KT 5000 -TSRA FEW036CB

Example: see airport list